OYHD/HOD METAR and TAF weather

Enter ICAO airport designator
Station Type Date Time Source
OYHD METAR 2017/02/08 12:00 UTC NOAA

OYHD 081200Z 18016KT 5000 BLDU NSC 30/21 Q////


Station Type Date Time Source
OYHD Decoded METAR 2017/02/08 12:00 UTC NOAA

Hodeidah, Yemen (OYHD) 14-45N 042-59E 115M
Feb 08, 2017 - 07:00 AM EST / 2017.02.08 1200 UTC
Wind: from the S (180 degrees) at 18 MPH (16 KT):0
Visibility: 3 mile(s):0
Weather: blowing widespread dust
Temperature: 86 F (30 C)
Dew Point: 69 F (21 C)
Relative Humidity: 58%
ob: OYHD 081200Z 18016KT 5000 BLDU NSC 30/21 Q////
cycle: 12

Station Type Date Time Source
OYHD TAF 2015/03/25 12:09 UTC NOAA

TAF OYHD 250822Z 2512/2618 21012KT 6000 SCT030
TEMPO 2512/2518 FEW020CB SCT030
BECMG 2520/2522 VRB03KT
BECMG 2606/2608 21012KT
BECMG 2616/2618 VRB03KT


Example: see airport list